createdAt,value
2022-08-05T00:00:53.178Z,100213.19
2022-08-05T00:03:57.033Z,100215.62
2022-08-05T00:07:00.171Z,100213.03
2022-08-05T00:10:27.268Z,100212.06
2022-08-05T00:13:38.942Z,100210.78
2022-08-05T00:16:52.433Z,100209.13
2022-08-05T00:20:02.520Z,100205.88
2022-08-05T00:23:13.039Z,100215.06
2022-08-05T00:26:17.796Z,100210.37
2022-08-05T00:29:25.382Z,100209.25
2022-08-05T00:32:28.141Z,100207.00
2022-08-05T00:35:36.331Z,100208.44
2022-08-05T00:38:55.732Z,100201.44
2022-08-05T00:42:01.921Z,100203.50
2022-08-05T00:45:11.762Z,100198.53
2022-08-05T00:48:18.487Z,100207.53
2022-08-05T00:51:50.030Z,100202.28
2022-08-05T00:54:52.550Z,100198.81
2022-08-05T00:57:58.643Z,100201.78
2022-08-05T01:01:03.727Z,100200.72
2022-08-05T01:04:20.276Z,100194.31
2022-08-05T01:07:31.712Z,100199.56
2022-08-05T01:10:55.057Z,100194.59
2022-08-05T01:14:00.323Z,100191.59
2022-08-05T01:17:07.408Z,100195.41
2022-08-05T01:23:36.699Z,100195.06
2022-08-05T01:26:45.481Z,100196.22
2022-08-05T01:29:54.722Z,100190.84
2022-08-05T01:33:08.391Z,100200.63
2022-08-05T01:39:59.176Z,100193.41
2022-08-05T01:43:03.600Z,100195.91
2022-08-05T01:46:07.211Z,100201.03
2022-08-05T01:49:23.246Z,100197.09
2022-08-05T01:52:33.012Z,100202.41
2022-08-05T01:55:38.711Z,100205.72
2022-08-05T01:58:45.602Z,100195.03
2022-08-05T02:01:50.997Z,100198.66
2022-08-05T02:04:58.327Z,100195.56
2022-08-05T02:08:01.826Z,100203.09
2022-08-05T02:11:11.760Z,100206.00
2022-08-05T02:14:23.360Z,100198.06
2022-08-05T02:18:32.102Z,100201.91
2022-08-05T02:21:03.835Z,100204.19
2022-08-05T02:24:10.812Z,100196.41
2022-08-05T02:27:17.643Z,100196.41
2022-08-05T02:30:51.700Z,100199.97
2022-08-05T02:34:19.383Z,100193.37
2022-08-05T02:37:22.662Z,100194.13
2022-08-05T02:40:26.312Z,100195.41
2022-08-05T02:43:34.470Z,100188.25
2022-08-05T02:47:00.346Z,100186.78
2022-08-05T02:50:06.535Z,100188.41
2022-08-05T02:53:18.727Z,100191.91
2022-08-05T02:56:21.956Z,100191.91
2022-08-05T02:59:27.060Z,100189.31
2022-08-05T03:02:44.277Z,100183.81
2022-08-05T03:06:55.097Z,100179.87
2022-08-05T03:09:15.825Z,100176.06
2022-08-05T03:12:41.944Z,100180.06
2022-08-05T03:15:45.759Z,100176.22
2022-08-05T03:18:48.773Z,100171.34
2022-08-05T03:22:16.243Z,100172.50
2022-08-05T03:25:59.755Z,100173.78
2022-08-05T03:28:43.029Z,100172.16
2022-08-05T03:31:57.417Z,100172.22
2022-08-05T03:35:04.492Z,100166.91
2022-08-05T03:38:14.319Z,100165.25
2022-08-05T03:41:19.022Z,100171.28
2022-08-05T03:44:29.072Z,100165.59
2022-08-05T03:47:35.554Z,100163.25
2022-08-05T03:52:48.835Z,100168.72
2022-08-05T03:55:49.743Z,100174.53
2022-08-05T03:58:00.471Z,100171.12
2022-08-05T04:01:05.020Z,100179.53
2022-08-05T04:04:10.673Z,100174.38
2022-08-05T04:07:17.784Z,100181.53
2022-08-05T04:10:37.569Z,100180.81
2022-08-05T04:13:51.389Z,100182.28
2022-08-05T04:16:57.385Z,100178.66
2022-08-05T04:19:59.381Z,100183.97
2022-08-05T04:23:01.958Z,100185.06
2022-08-05T04:26:04.673Z,100176.78
2022-08-05T04:29:07.830Z,100178.91
2022-08-05T04:32:11.737Z,100182.28
2022-08-05T04:35:19.690Z,100180.16
2022-08-05T04:38:39.178Z,100173.75
2022-08-05T04:41:42.475Z,100179.63
2022-08-05T04:44:46.551Z,100178.47
2022-08-05T04:47:50.420Z,100184.16
2022-08-05T04:51:02.949Z,100184.56
2022-08-05T04:54:20.018Z,100187.09
2022-08-05T04:57:22.276Z,100184.72
2022-08-05T05:00:31.270Z,100182.94
2022-08-05T05:03:41.892Z,100183.72
2022-08-05T05:06:52.010Z,100184.28
2022-08-05T05:10:02.124Z,100183.34
2022-08-05T05:13:06.083Z,100183.19
2022-08-05T05:16:08.554Z,100174.53
2022-08-05T05:19:18.629Z,100177.28
2022-08-05T05:22:22.884Z,100172.34
2022-08-05T05:25:40.462Z,100178.41
2022-08-05T05:28:45.004Z,100180.38
2022-08-05T05:31:47.219Z,100180.00
2022-08-05T05:34:49.779Z,100174.81
2022-08-05T05:38:02.526Z,100173.97
2022-08-05T05:41:04.846Z,100179.31
2022-08-05T05:44:35.545Z,100173.41
2022-08-05T05:48:08.039Z,100170.34
2022-08-05T05:50:56.183Z,100168.50
2022-08-05T05:54:00.049Z,100165.84
2022-08-05T05:57:02.740Z,100170.78
2022-08-05T06:00:12.854Z,100176.50
2022-08-05T06:03:39.785Z,100168.91
2022-08-05T06:06:52.979Z,100164.88
2022-08-05T06:10:04.395Z,100164.38
2022-08-05T06:13:09.724Z,100176.06
2022-08-05T06:16:30.335Z,100171.91
2022-08-05T06:19:35.608Z,100173.59
2022-08-05T06:22:38.094Z,100170.25
2022-08-05T06:26:13.511Z,100179.63
2022-08-05T06:29:23.451Z,100179.44
2022-08-05T06:32:28.826Z,100172.84
2022-08-05T06:36:06.972Z,100175.25
2022-08-05T06:39:02.329Z,100167.56
2022-08-05T06:42:05.991Z,100173.47
2022-08-05T06:45:09.414Z,100180.03
2022-08-05T06:48:47.193Z,100178.34
2022-08-05T06:51:34.228Z,100171.09
2022-08-05T06:54:41.059Z,100179.97
2022-08-05T06:58:03.524Z,100174.75
2022-08-05T07:01:08.093Z,100175.00
2022-08-05T07:04:16.184Z,100170.62
2022-08-05T07:07:24.161Z,100169.37
2022-08-05T07:10:52.337Z,100176.34
2022-08-05T07:14:15.333Z,100176.28
2022-08-05T07:18:02.422Z,100168.38
2022-08-05T07:20:45.385Z,100174.88
2022-08-05T07:23:49.946Z,100170.97
2022-08-05T07:26:54.531Z,100182.69
2022-08-05T07:30:27.579Z,100175.06
2022-08-05T07:33:36.438Z,100180.06
2022-08-05T07:36:41.106Z,100180.75
2022-08-05T07:40:04.431Z,100187.94
2022-08-05T07:43:20.504Z,100186.97
2022-08-05T07:46:25.100Z,100178.12
2022-08-05T07:49:28.330Z,100181.97
2022-08-05T07:52:31.108Z,100184.59
2022-08-05T07:55:44.371Z,100177.25
2022-08-05T07:58:58.867Z,100183.91
2022-08-05T08:02:03.109Z,100185.47
2022-08-05T08:05:06.126Z,100189.13
2022-08-05T08:08:12.192Z,100196.37
2022-08-05T08:11:16.158Z,100194.84
2022-08-05T08:14:19.167Z,100196.13
2022-08-05T08:17:22.230Z,100196.72
2022-08-05T08:21:00.085Z,100188.38
2022-08-05T08:24:02.764Z,100176.69
2022-08-05T08:27:07.381Z,100171.03
2022-08-05T08:30:29.811Z,100173.94
2022-08-05T08:33:37.344Z,100166.53
2022-08-05T08:36:49.015Z,100174.34
2022-08-05T08:39:54.839Z,100167.81
2022-08-05T08:42:57.413Z,100173.75
2022-08-05T08:46:19.640Z,100162.13
2022-08-05T08:50:07.582Z,100162.13
2022-08-05T08:52:53.671Z,100163.19
2022-08-05T08:56:03.041Z,100158.94
2022-08-05T08:59:14.830Z,100159.03
2022-08-05T09:02:24.170Z,100152.16
2022-08-05T09:05:38.324Z,100154.88
2022-08-05T09:08:41.759Z,100150.53
2022-08-05T09:11:53.341Z,100145.53
2022-08-05T09:15:05.682Z,100145.09
2022-08-05T09:18:09.035Z,100145.84
2022-08-05T09:21:11.706Z,100147.25
2022-08-05T09:24:22.791Z,100136.69
2022-08-05T09:28:04.450Z,100139.44
2022-08-05T09:30:59.370Z,100137.53
2022-08-05T09:34:04.337Z,100132.66
2022-08-05T09:37:17.023Z,100137.50
2022-08-05T09:40:30.159Z,100129.06
2022-08-05T09:43:40.560Z,100125.88
2022-08-05T09:46:51.828Z,100116.09
2022-08-05T09:50:02.408Z,100113.94
2022-08-05T09:53:05.562Z,100121.25
2022-08-05T09:56:12.972Z,100121.50
2022-08-05T09:59:17.552Z,100111.22
2022-08-05T10:02:30.686Z,100110.31
2022-08-05T10:05:33.477Z,100099.97
2022-08-05T10:08:38.197Z,100097.16
2022-08-05T10:11:41.558Z,100097.22
2022-08-05T10:14:44.883Z,100097.34
2022-08-05T10:18:06.128Z,100088.78
2022-08-05T10:21:15.678Z,100087.00
2022-08-05T10:24:19.528Z,100078.09
2022-08-05T10:28:13.290Z,100074.69
2022-08-05T10:32:48.641Z,100080.22
2022-08-05T10:34:12.022Z,100074.53
2022-08-05T10:37:14.995Z,100073.56
2022-08-05T10:40:28.202Z,100065.72
2022-08-05T10:43:35.818Z,100058.50
2022-08-05T10:46:46.258Z,100061.25
2022-08-05T10:50:32.545Z,100064.59
2022-08-05T10:53:42.561Z,100054.56
2022-08-05T10:56:49.297Z,100054.50
2022-08-05T11:00:13.360Z,100056.97
2022-08-05T11:03:23.392Z,100049.81
2022-08-05T11:06:30.787Z,100044.91
2022-08-05T11:10:03.960Z,100045.72
2022-08-05T11:13:32.246Z,100046.84
2022-08-05T11:16:55.944Z,100044.97
2022-08-05T11:20:16.813Z,100036.84
2022-08-05T11:23:33.444Z,100038.09
2022-08-05T11:26:36.246Z,100033.91
2022-08-05T11:29:41.022Z,100036.38
2022-08-05T11:32:43.300Z,100032.28
2022-08-05T11:36:08.365Z,100031.44
2022-08-05T11:39:12.311Z,100026.66
2022-08-05T11:42:18.396Z,100025.66
2022-08-05T11:46:14.489Z,100023.37
2022-08-05T11:48:43.679Z,100030.69
2022-08-05T11:51:49.508Z,100024.72
2022-08-05T11:54:55.034Z,100029.50
2022-08-05T11:58:09.677Z,100026.63
2022-08-05T12:01:15.538Z,100038.19
2022-08-05T12:04:21.702Z,100028.06
2022-08-05T12:08:08.963Z,100021.03
2022-08-05T12:10:48.822Z,100018.34
2022-08-05T12:13:58.612Z,100020.25
2022-08-05T12:18:00.727Z,100013.56
2022-08-05T12:20:33.541Z,100018.75
2022-08-05T12:23:35.925Z,100011.09
2022-08-05T12:26:50.172Z,100013.34
2022-08-05T12:30:03.345Z,100009.03
2022-08-05T12:33:07.295Z,100001.47
2022-08-05T12:36:27.917Z,99997.16
2022-08-05T12:39:37.504Z,100009.44
2022-08-05T12:42:41.204Z,99994.47
2022-08-05T12:45:53.218Z,99991.38
2022-08-05T12:48:59.276Z,99992.22
2022-08-05T12:52:13.901Z,99990.81
2022-08-05T12:55:26.320Z,99988.97
2022-08-05T12:58:38.591Z,99989.53
2022-08-05T13:02:06.998Z,99990.25
2022-08-05T13:05:12.541Z,99987.81
2022-08-05T13:08:18.200Z,99988.94
2022-08-05T13:11:57.883Z,99974.53
2022-08-05T13:14:44.619Z,99964.03
2022-08-05T13:17:56.193Z,99965.16
2022-08-05T13:21:01.412Z,99961.81
2022-08-05T13:24:04.357Z,99961.25
2022-08-05T13:27:06.448Z,99948.22
2022-08-05T13:30:33.561Z,99944.09
2022-08-05T13:34:20.920Z,99944.09
2022-08-05T13:36:58.400Z,99943.78
2022-08-05T13:40:16.439Z,99940.31
2022-08-05T13:43:22.793Z,99934.16
2022-08-05T13:49:47.662Z,99937.44
2022-08-05T13:52:50.692Z,99931.56
2022-08-05T13:56:00.190Z,99932.06
2022-08-05T13:59:06.245Z,99923.03
2022-08-05T14:02:26.712Z,99921.91
2022-08-05T14:06:24.714Z,99920.16
2022-08-05T14:08:54.286Z,99912.88
2022-08-05T14:12:04.057Z,99905.97
2022-08-05T14:16:04.465Z,99905.97
2022-08-05T14:18:40.894Z,99902.84
2022-08-05T14:22:10.184Z,99899.41
2022-08-05T14:25:21.568Z,99894.69
2022-08-05T14:28:26.211Z,99894.22
2022-08-05T14:32:03.917Z,99887.31
2022-08-05T14:34:51.849Z,99880.34
2022-08-05T14:37:55.665Z,99876.72
2022-08-05T14:41:00.099Z,99882.25
2022-08-05T14:44:19.896Z,99879.53
2022-08-05T14:48:03.644Z,99880.78
2022-08-05T14:50:45.744Z,99883.66
2022-08-05T14:54:26.869Z,99875.88
2022-08-05T14:57:13.687Z,99869.66
2022-08-05T15:00:16.231Z,99870.47
2022-08-05T15:03:22.963Z,99867.84
2022-08-05T15:06:28.128Z,99857.03
2022-08-05T15:09:51.770Z,99858.28
2022-08-05T15:13:01.068Z,99852.25
2022-08-05T15:16:05.866Z,99863.00
2022-08-05T15:19:23.603Z,99858.94
2022-08-05T15:22:27.328Z,99864.84
2022-08-05T15:25:51.441Z,99856.69
2022-08-05T15:28:52.834Z,99855.31
2022-08-05T15:31:55.153Z,99853.19
2022-08-05T15:34:57.748Z,99847.56
2022-08-05T15:38:34.582Z,99841.03
2022-08-05T15:41:24.606Z,99838.59
2022-08-05T15:44:46.090Z,99838.22
2022-08-05T15:47:48.264Z,99829.72
2022-08-05T15:50:50.730Z,99824.69
2022-08-05T15:53:53.314Z,99825.97
2022-08-05T15:56:55.369Z,99832.47
2022-08-05T15:59:57.902Z,99825.91
2022-08-05T16:03:00.478Z,99828.91
2022-08-05T16:06:02.808Z,99829.47
2022-08-05T16:09:06.667Z,99834.47
2022-08-05T16:12:12.278Z,99828.38
2022-08-05T16:15:18.593Z,99832.81
2022-08-05T16:18:20.897Z,99841.53
2022-08-05T16:21:58.619Z,99833.19
2022-08-05T16:24:52.381Z,99834.34
2022-08-05T16:28:05.247Z,99833.50
2022-08-05T16:31:08.225Z,99826.34
2022-08-05T16:34:13.044Z,99831.00
2022-08-05T16:38:15.022Z,99837.34
2022-08-05T16:40:39.575Z,99833.31
2022-08-05T16:43:42.177Z,99822.28
2022-08-05T16:46:56.151Z,99822.31
2022-08-05T16:49:58.511Z,99824.19
2022-08-05T16:53:12.089Z,99819.94
2022-08-05T16:56:24.034Z,99815.09
2022-08-05T16:59:27.881Z,99815.16
2022-08-05T17:02:32.801Z,99812.19
2022-08-05T17:05:34.719Z,99819.28
2022-08-05T17:08:53.316Z,99813.34
2022-08-05T17:11:59.315Z,99816.63
2022-08-05T17:15:02.125Z,99815.03
2022-08-05T17:18:04.950Z,99826.41
2022-08-05T17:21:16.426Z,99824.25
2022-08-05T17:24:35.232Z,99830.44
2022-08-05T17:27:40.962Z,99832.34
2022-08-05T17:30:51.871Z,99833.16
2022-08-05T17:33:56.524Z,99833.13
2022-08-05T17:37:04.643Z,99834.13
2022-08-05T17:40:25.158Z,99836.50
2022-08-05T17:43:46.502Z,99833.69
2022-08-05T17:46:49.428Z,99831.41
2022-08-05T17:50:04.061Z,99831.84
2022-08-05T17:53:08.618Z,99830.06
2022-08-05T17:56:11.858Z,99825.84
2022-08-05T17:59:16.031Z,99825.69
2022-08-05T18:02:28.597Z,99833.50
2022-08-05T18:05:35.595Z,99835.69
2022-08-05T18:08:44.277Z,99833.22
2022-08-05T18:11:52.387Z,99828.94
2022-08-05T18:14:55.209Z,99834.09
2022-08-05T18:17:58.612Z,99830.41
2022-08-05T18:21:05.100Z,99823.69
2022-08-05T18:24:16.769Z,99826.72
2022-08-05T18:27:20.509Z,99828.84
2022-08-05T18:30:23.205Z,99830.72
2022-08-05T18:33:28.318Z,99829.47
2022-08-05T18:36:53.054Z,99822.19
2022-08-05T18:41:03.396Z,99839.91
2022-08-05T18:43:20.834Z,99848.25
2022-08-05T18:46:29.046Z,99852.34
2022-08-05T18:49:58.058Z,99850.03
2022-08-05T18:53:13.138Z,99848.19
2022-08-05T18:56:25.235Z,99846.94
2022-08-05T18:59:43.559Z,99849.19
2022-08-05T19:02:52.387Z,99850.81
2022-08-05T19:06:13.417Z,99857.59
2022-08-05T19:09:19.125Z,99853.59
2022-08-05T19:12:23.503Z,99850.69
2022-08-05T19:15:59.816Z,99849.41
2022-08-05T19:18:53.899Z,99850.47
2022-08-05T19:21:58.863Z,99857.19
2022-08-05T19:25:02.542Z,99846.22
2022-08-05T19:28:06.925Z,99850.19
2022-08-05T19:31:19.223Z,99854.59
2022-08-05T19:34:22.012Z,99856.91
2022-08-05T19:37:29.956Z,99853.50
2022-08-05T19:40:49.028Z,99858.50
2022-08-05T19:44:13.702Z,99850.00
2022-08-05T19:47:16.621Z,99848.59
2022-08-05T19:50:21.025Z,99854.38
2022-08-05T19:54:04.549Z,99847.59
2022-08-05T19:56:51.271Z,99852.00
2022-08-05T20:00:02.386Z,99850.94
2022-08-05T20:03:09.144Z,99854.53
2022-08-05T20:06:15.525Z,99850.66
2022-08-05T20:09:19.276Z,99854.03
2022-08-05T20:12:24.430Z,99857.19
2022-08-05T20:15:52.050Z,99869.25
2022-08-05T20:18:55.424Z,99865.53
2022-08-05T20:21:59.560Z,99875.44
2022-08-05T20:25:01.696Z,99867.16
2022-08-05T20:28:04.597Z,99872.28
2022-08-05T20:31:06.720Z,99880.66
2022-08-05T20:34:10.696Z,99890.25
2022-08-05T20:37:17.893Z,99892.47
2022-08-05T20:40:37.809Z,99891.03
2022-08-05T20:43:58.728Z,99892.47
2022-08-05T20:47:05.122Z,99889.63
2022-08-05T20:50:11.961Z,99897.31
2022-08-05T20:53:15.942Z,99887.03
2022-08-05T20:56:42.146Z,99893.09
2022-08-05T21:00:10.740Z,99897.13
2022-08-05T21:03:07.859Z,99904.41
2022-08-05T21:06:27.636Z,99903.91
2022-08-05T21:09:30.799Z,99896.69
2022-08-05T21:12:37.910Z,99898.38
2022-08-05T21:15:44.329Z,99898.28
2022-08-05T21:18:54.707Z,99899.78
2022-08-05T21:21:59.334Z,99897.75
2022-08-05T21:25:03.298Z,99898.41
2022-08-05T21:28:07.928Z,99903.19
2022-08-05T21:31:10.675Z,99903.66
2022-08-05T21:34:17.732Z,99910.72
2022-08-05T21:37:20.574Z,99909.53
2022-08-05T21:40:23.807Z,99912.66
2022-08-05T21:43:25.985Z,99910.00
2022-08-05T21:46:28.617Z,99910.06
2022-08-05T21:49:58.636Z,99914.63
2022-08-05T21:53:08.341Z,99915.69
2022-08-05T21:56:18.746Z,99910.25
2022-08-05T21:59:24.224Z,99912.06
2022-08-05T22:02:29.052Z,99909.22
2022-08-05T22:05:48.708Z,99918.06
2022-08-05T22:08:52.421Z,99916.31
2022-08-05T22:11:56.293Z,99918.63
2022-08-05T22:14:58.905Z,99921.91
2022-08-05T22:18:03.982Z,99919.25
2022-08-05T22:21:14.151Z,99918.00
2022-08-05T22:24:51.809Z,99916.81
2022-08-05T22:28:11.309Z,99916.25
2022-08-05T22:31:18.121Z,99914.81
2022-08-05T22:34:28.647Z,99911.56
2022-08-05T22:37:59.328Z,99915.88
2022-08-05T22:40:58.583Z,99915.63
2022-08-05T22:44:04.612Z,99910.31
2022-08-05T22:47:08.122Z,99899.88
2022-08-05T22:50:20.485Z,99905.19
2022-08-05T22:53:35.922Z,99909.31
2022-08-05T22:56:39.945Z,99906.66
2022-08-05T22:59:51.869Z,99907.09
2022-08-05T23:03:01.522Z,99911.59
2022-08-05T23:06:09.332Z,99907.09
2022-08-05T23:09:26.975Z,99911.78
2022-08-05T23:12:32.439Z,99909.34
2022-08-05T23:15:38.529Z,99908.72
2022-08-05T23:18:47.581Z,99905.88
2022-08-05T23:21:51.503Z,99907.31
2022-08-05T23:25:03.458Z,99910.81
2022-08-05T23:28:12.558Z,99906.72
2022-08-05T23:31:17.928Z,99911.22
2022-08-05T23:34:24.564Z,99910.19
2022-08-05T23:37:27.363Z,99906.72
2022-08-05T23:40:49.746Z,99902.84
2022-08-05T23:44:06.158Z,99890.94
2022-08-05T23:47:14.400Z,99900.56
2022-08-05T23:50:20.242Z,99901.56
2022-08-05T23:53:23.297Z,99895.63
2022-08-05T23:56:33.697Z,99892.34
